Time;durP1;ratioP1;P1;durP2;ratioP2;P2;SDS_P1;SDS_P2;PMS_P1;PMS_P2;Temp;Humidity;BMP_temperature;BMP_pressure;BME280_temperature;BME280_humidity;BME280_pressure;Samples;Min_cycle;Max_cycle;Signal;HPM_P1;HPM_P2
2021/09/30 00:02:13;;;;;;;;;;;10.70;96.70;;;;;;5014540;28;19914;-73
2021/09/30 00:04:39;;;;;;;;;;;10.70;96.80;;;;;;5015639;28;19979;-73
2021/09/30 00:07:07;;;;;;;;;;;10.70;96.80;;;;;;5054374;28;19913;-73
2021/09/30 00:09:34;;;;;;;;;;;10.70;96.80;;;;;;5019546;28;19948;-73
2021/09/30 00:12:06;;;;;;;;;;;10.70;96.90;;;;;;5017772;28;20310;-73
2021/09/30 00:14:52;;;;;;;;;;;10.70;97.00;;;;;;5016841;28;19913;-72
2021/09/30 00:33:53;;;;;;;;;;;10.70;97.10;;;;;;5016715;28;19919;-73
2021/09/30 00:47:14;;;;;;;;;;;10.70;97.10;;;;;;5020896;28;19932;-73
2021/09/30 00:53:22;;;;;;;;;;;10.70;97.10;;;;;;5019363;28;20361;-74
2021/09/30 01:52:07;;;;;;;;;;;10.50;97.10;;;;;;5018156;28;19920;-73
2021/09/30 02:21:17;;;;;;;;;;;10.70;96.80;;;;;;5014411;28;19921;-73
2021/09/30 02:26:39;;;;;;;;;;;10.70;96.70;;;;;;5018100;28;19971;-74
2021/09/30 02:29:24;;;;;;;;;;;10.70;96.80;;;;;;5018763;28;19917;-74
2021/09/30 02:59:30;;;;;;;;;;;10.70;96.80;;;;;;5014937;28;20008;-74
2021/09/30 03:01:57;;;;;;;;;;;10.70;96.80;;;;;;5013185;28;19912;-74
2021/09/30 03:04:23;;;;;;;;;;;10.60;96.80;;;;;;5015777;28;20000;-74
2021/09/30 03:06:49;;;;;;;;;;;10.70;96.70;;;;;;5017766;28;19911;-74
2021/09/30 03:09:20;;;;;;;;;;;10.70;96.60;;;;;;5048275;28;19913;-74
2021/09/30 03:11:50;;;;;;;;;;;10.70;96.60;;;;;;5047920;28;20000;-74
2021/09/30 03:14:16;;;;;;;;;;;10.70;96.60;;;;;;5015181;28;19914;-74
2021/09/30 03:16:47;;;;;;;;;;;10.70;96.60;;;;;;5018449;28;19949;-74
2021/09/30 03:19:31;;;;;;;;;;;10.70;96.60;;;;;;5013882;28;19912;-74
2021/09/30 03:24:26;;;;;;;;;;;10.60;96.50;;;;;;5013965;28;19975;-74
2021/09/30 03:26:52;;;;;;;;;;;10.70;96.60;;;;;;5017745;28;19913;-74
2021/09/30 03:29:17;;;;;;;;;;;10.60;96.50;;;;;;5016817;28;19925;-74
2021/09/30 03:31:44;;;;;;;;;;;10.70;96.60;;;;;;5045917;28;20358;-74
2021/09/30 03:34:09;;;;;;;;;;;10.60;96.50;;;;;;5047763;28;19913;-74
2021/09/30 03:36:35;;;;;;;;;;;10.60;96.50;;;;;;5015539;28;20385;-74
2021/09/30 03:39:01;;;;;;;;;;;10.60;96.50;;;;;;5013768;28;19913;-74
2021/09/30 03:41:26;;;;;;;;;;;10.60;96.50;;;;;;5016085;28;19909;-74
2021/09/30 03:43:52;;;;;;;;;;;10.60;96.50;;;;;;5017302;28;19917;-74
2021/09/30 03:46:17;;;;;;;;;;;10.60;96.50;;;;;;5017958;28;19913;-74
2021/09/30 03:48:51;;;;;;;;;;;10.60;96.50;;;;;;5016950;28;19913;-74
2021/09/30 03:51:27;;;;;;;;;;;10.60;96.50;;;;;;5013167;28;19910;-74
2021/09/30 03:54:12;;;;;;;;;;;10.60;96.60;;;;;;5015726;28;19913;-73
2021/09/30 03:59:21;;;;;;;;;;;10.50;96.50;;;;;;5018174;28;19924;-74
2021/09/30 04:01:49;;;;;;;;;;;10.50;96.60;;;;;;5013053;28;19913;-74
2021/09/30 04:04:15;;;;;;;;;;;10.50;96.60;;;;;;5014972;28;20400;-73
2021/09/30 04:06:41;;;;;;;;;;;10.50;96.60;;;;;;5014742;28;20019;-73
2021/09/30 04:09:07;;;;;;;;;;;10.50;96.60;;;;;;5015130;28;19925;-74
2021/09/30 04:11:33;;;;;;;;;;;10.50;96.70;;;;;;5015605;28;19913;-73
2021/09/30 04:13:58;;;;;;;;;;;10.40;96.70;;;;;;5017483;28;19921;-73
2021/09/30 04:16:26;;;;;;;;;;;10.40;96.70;;;;;;5016406;28;19913;-73
2021/09/30 04:18:52;;;;;;;;;;;10.40;96.70;;;;;;5017343;28;19905;-77
2021/09/30 04:21:17;;;;;;;;;;;10.40;96.70;;;;;;5012003;28;20346;-78
2021/09/30 04:23:43;;;;;;;;;;;10.40;96.80;;;;;;5047133;28;19914;-79
2021/09/30 04:26:08;;;;;;;;;;;10.40;96.80;;;;;;5016555;28;19913;-78
2021/09/30 04:28:34;;;;;;;;;;;10.40;96.80;;;;;;5017101;28;19914;-79
2021/09/30 04:30:59;;;;;;;;;;;10.30;96.80;;;;;;5045131;28;19964;-78
2021/09/30 04:33:24;;;;;;;;;;;10.30;96.90;;;;;;5016485;28;19912;-76
2021/09/30 04:35:50;;;;;;;;;;;10.30;96.90;;;;;;5049761;28;19909;-76
2021/09/30 04:38:15;;;;;;;;;;;10.30;97.00;;;;;;5015229;28;19955;-80
2021/09/30 04:40:41;;;;;;;;;;;10.30;97.00;;;;;;5015822;28;19992;-79
2021/09/30 04:43:06;;;;;;;;;;;10.20;97.10;;;;;;5019016;28;20382;-77
2021/09/30 04:45:32;;;;;;;;;;;10.20;97.10;;;;;;5002021;28;19948;-78
2021/09/30 04:47:57;;;;;;;;;;;10.20;97.10;;;;;;5020036;28;19924;-78
2021/09/30 04:50:23;;;;;;;;;;;10.20;97.20;;;;;;5017799;28;19920;-77
2021/09/30 04:52:48;;;;;;;;;;;10.20;97.10;;;;;;5015288;28;20036;-77
2021/09/30 04:55:14;;;;;;;;;;;10.20;97.20;;;;;;5016144;28;20342;-77
2021/09/30 04:57:39;;;;;;;;;;;10.20;97.30;;;;;;5018525;28;20365;-77
2021/09/30 05:00:05;;;;;;;;;;;10.20;97.30;;;;;;5019868;28;19905;-77
2021/09/30 05:02:30;;;;;;;;;;;10.10;97.30;;;;;;5020181;28;20296;-72
2021/09/30 05:04:55;;;;;;;;;;;10.10;97.30;;;;;;5013111;28;20015;-74
2021/09/30 05:07:21;;;;;;;;;;;10.10;97.30;;;;;;5017468;28;19983;-75
2021/09/30 05:09:50;;;;;;;;;;;10.10;97.40;;;;;;5019331;28;19909;-76
2021/09/30 05:12:16;;;;;;;;;;;10.10;97.30;;;;;;5017933;28;19928;-75
2021/09/30 05:14:42;;;;;;;;;;;10.00;97.40;;;;;;5019758;28;19909;-76
2021/09/30 05:17:07;;;;;;;;;;;10.00;97.40;;;;;;5019266;28;19912;-76
2021/09/30 05:19:33;;;;;;;;;;;10.00;97.50;;;;;;5051056;28;19925;-75
2021/09/30 05:21:58;;;;;;;;;;;10.00;97.50;;;;;;5017077;28;20352;-75
2021/09/30 05:24:24;;;;;;;;;;;9.90;97.50;;;;;;5019498;28;19913;-76
2021/09/30 05:26:49;;;;;;;;;;;9.90;97.60;;;;;;5018812;28;19977;-75
2021/09/30 05:29:15;;;;;;;;;;;9.90;97.60;;;;;;5018177;28;19917;-76
2021/09/30 05:31:40;;;;;;;;;;;9.80;97.60;;;;;;5017583;28;19913;-76
2021/09/30 05:34:06;;;;;;;;;;;9.80;97.70;;;;;;5050784;28;20227;-75
2021/09/30 05:36:31;;;;;;;;;;;9.80;97.90;;;;;;5017418;28;20014;-75
2021/09/30 05:38:56;;;;;;;;;;;9.80;97.80;;;;;;5018688;28;20000;-76
2021/09/30 05:41:24;;;;;;;;;;;9.80;97.80;;;;;;5016775;28;19913;-75
2021/09/30 05:43:56;;;;;;;;;;;9.80;97.80;;;;;;5016710;28;19967;-75
2021/09/30 05:46:34;;;;;;;;;;;9.80;97.80;;;;;;5030145;28;20255;-75
2021/09/30 05:48:59;;;;;;;;;;;9.80;97.80;;;;;;5017766;28;19916;-75
2021/09/30 05:51:25;;;;;;;;;;;9.80;97.90;;;;;;5016340;28;19913;-75
2021/09/30 05:53:50;;;;;;;;;;;9.70;97.80;;;;;;5017561;28;19913;-75
2021/09/30 05:56:16;;;;;;;;;;;9.70;97.90;;;;;;5016080;28;19972;-76
2021/09/30 05:58:41;;;;;;;;;;;9.70;97.90;;;;;;5046638;28;19909;-76
2021/09/30 06:01:11;;;;;;;;;;;9.70;97.80;;;;;;5045402;28;19920;-77
2021/09/30 06:09:32;;;;;;;;;;;9.70;98.00;;;;;;5012534;28;19917;-74
2021/09/30 06:14:19;;;;;;;;;;;9.70;97.90;;;;;;5015939;28;20361;-76
2021/09/30 06:16:46;;;;;;;;;;;9.70;97.90;;;;;;5017833;28;19905;-76
2021/09/30 06:19:13;;;;;;;;;;;9.70;97.90;;;;;;5015025;28;20060;-77
2021/09/30 06:21:39;;;;;;;;;;;9.80;97.90;;;;;;5014105;28;19913;-73
2021/09/30 06:24:04;;;;;;;;;;;9.80;97.90;;;;;;5016734;28;20297;-72
2021/09/30 06:26:30;;;;;;;;;;;9.80;97.90;;;;;;5048930;28;20516;-72
2021/09/30 06:30:31;;;;;;;;;;;9.80;97.90;;;;;;5098056;22;21639;-63
2021/09/30 06:32:57;;;;;;;;;;;9.90;97.90;;;;;;5077787;28;20680;-63
2021/09/30 06:35:23;;;;;;;;;;;9.90;97.90;;;;;;5080474;28;19913;-63
2021/09/30 06:37:48;;;;;;;;;;;10.00;97.80;;;;;;5079996;28;19916;-64
2021/09/30 06:40:14;;;;;;;;;;;10.00;97.80;;;;;;5082964;28;19995;-63
2021/09/30 06:42:39;;;;;;;;;;;10.10;97.80;;;;;;5081783;28;20392;-64
2021/09/30 06:45:05;;;;;;;;;;;10.10;97.70;;;;;;5080733;28;19931;-63
2021/09/30 06:47:36;;;;;;;;;;;10.20;97.60;;;;;;5081342;28;20057;-62
2021/09/30 06:50:03;;;;;;;;;;;10.20;97.60;;;;;;5079688;28;19955;-62
2021/09/30 06:52:28;;;;;;;;;;;10.30;97.50;;;;;;5079125;28;20313;-62
2021/09/30 06:54:54;;;;;;;;;;;10.30;97.50;;;;;;5081213;28;20005;-61
2021/09/30 06:57:21;;;;;;;;;;;10.30;97.40;;;;;;5080233;28;19939;-63
2021/09/30 06:59:47;;;;;;;;;;;10.40;97.40;;;;;;5082909;28;19947;-63
2021/09/30 07:02:14;;;;;;;;;;;10.40;97.40;;;;;;5080691;28;19921;-62
2021/09/30 07:04:40;;;;;;;;;;;10.50;97.30;;;;;;5079128;28;20365;-61
2021/09/30 07:07:06;;;;;;;;;;;10.60;97.30;;;;;;5077638;28;19923;-63
2021/09/30 07:09:32;;;;;;;;;;;10.60;97.30;;;;;;5079830;28;19916;-61
2021/09/30 07:11:59;;;;;;;;;;;10.60;97.10;;;;;;5081624;28;19924;-63
2021/09/30 07:14:24;;;;;;;;;;;10.70;97.10;;;;;;5083391;28;20010;-63
2021/09/30 07:16:50;;;;;;;;;;;10.80;97.10;;;;;;5078615;28;20003;-62
2021/09/30 07:19:15;;;;;;;;;;;10.80;97.00;;;;;;5082268;28;19916;-63
2021/09/30 07:21:41;;;;;;;;;;;10.90;97.00;;;;;;5079943;28;19916;-62
2021/09/30 07:24:06;;;;;;;;;;;11.00;96.80;;;;;;5078948;28;20041;-61
2021/09/30 07:26:32;;;;;;;;;;;11.00;96.70;;;;;;5082597;28;19967;-60
2021/09/30 07:28:57;;;;;;;;;;;11.10;96.60;;;;;;5080537;28;19942;-62
2021/09/30 07:31:23;;;;;;;;;;;11.10;96.70;;;;;;5078140;28;19999;-63
2021/09/30 07:33:48;;;;;;;;;;;11.20;96.50;;;;;;5077625;28;19999;-63
2021/09/30 07:36:14;;;;;;;;;;;11.20;96.40;;;;;;5081815;28;19944;-63
2021/09/30 07:38:40;;;;;;;;;;;11.30;96.40;;;;;;5081458;28;19909;-63
2021/09/30 07:41:05;;;;;;;;;;;11.40;96.30;;;;;;5066891;28;19924;-61
2021/09/30 07:43:31;;;;;;;;;;;11.50;96.30;;;;;;5066171;28;20215;-63
2021/09/30 07:45:56;;;;;;;;;;;11.50;96.20;;;;;;5066658;28;20237;-63
2021/09/30 07:48:22;;;;;;;;;;;11.60;96.00;;;;;;5064307;28;20488;-63
2021/09/30 07:50:48;;;;;;;;;;;11.60;96.10;;;;;;5064308;28;19989;-63
2021/09/30 07:53:14;;;;;;;;;;;11.60;95.90;;;;;;5065982;28;19912;-62
2021/09/30 07:55:41;;;;;;;;;;;11.70;96.10;;;;;;5064426;28;19908;-63
2021/09/30 07:58:09;;;;;;;;;;;11.80;95.90;;;;;;5066658;28;19943;-63
2021/09/30 08:00:35;;;;;;;;;;;11.90;95.70;;;;;;5064087;28;19908;-63
2021/09/30 08:03:01;;;;;;;;;;;11.90;95.80;;;;;;5064883;28;19917;-61
2021/09/30 08:05:26;;;;;;;;;;;12.00;95.70;;;;;;5066491;28;19920;-63
2021/09/30 08:07:52;;;;;;;;;;;12.00;95.70;;;;;;5065154;28;20226;-62
2021/09/30 08:10:17;;;;;;;;;;;12.10;95.60;;;;;;5065943;28;20438;-61
2021/09/30 08:12:43;;;;;;;;;;;12.10;95.30;;;;;;5063419;28;20379;-62
2021/09/30 08:15:08;;;;;;;;;;;12.20;95.40;;;;;;5065363;28;20034;-64
2021/09/30 08:17:34;;;;;;;;;;;12.20;95.30;;;;;;5067027;28;19999;-64
2021/09/30 08:19:59;;;;;;;;;;;12.30;95.30;;;;;;5064653;28;20002;-62
2021/09/30 08:22:25;;;;;;;;;;;12.40;95.20;;;;;;5066952;28;19916;-63
2021/09/30 08:24:50;;;;;;;;;;;12.40;95.00;;;;;;5066601;28;19966;-62
2021/09/30 08:27:16;;;;;;;;;;;12.40;94.90;;;;;;5066461;28;19913;-60
2021/09/30 08:29:41;;;;;;;;;;;12.50;94.80;;;;;;5064804;28;20011;-62
2021/09/30 08:32:06;;;;;;;;;;;12.50;94.80;;;;;;5063522;28;19920;-63
2021/09/30 08:34:32;;;;;;;;;;;12.60;94.90;;;;;;5066896;28;19996;-62
2021/09/30 08:36:57;;;;;;;;;;;12.70;94.60;;;;;;5065283;28;19995;-63
2021/09/30 08:39:23;;;;;;;;;;;12.70;94.40;;;;;;5065578;28;19912;-63
2021/09/30 08:41:48;;;;;;;;;;;12.80;94.40;;;;;;5046153;28;19920;-63
2021/09/30 08:44:14;;;;;;;;;;;12.80;94.50;;;;;;5065679;28;19919;-63
2021/09/30 08:46:39;;;;;;;;;;;12.90;94.40;;;;;;5062821;28;20400;-61
2021/09/30 08:49:05;;;;;;;;;;;13.00;94.20;;;;;;5065954;28;19977;-63
2021/09/30 08:51:30;;;;;;;;;;;13.10;94.10;;;;;;5061842;28;19912;-60
2021/09/30 08:53:56;;;;;;;;;;;13.20;94.10;;;;;;5066505;28;20249;-61
2021/09/30 08:56:21;;;;;;;;;;;13.30;94.10;;;;;;5063351;28;19942;-62
2021/09/30 08:58:47;;;;;;;;;;;13.40;94.00;;;;;;5064769;28;20365;-61
2021/09/30 09:01:13;;;;;;;;;;;13.60;93.90;;;;;;5062106;28;19934;-63
2021/09/30 09:03:40;;;;;;;;;;;13.70;93.70;;;;;;5066476;28;19912;-63
2021/09/30 09:06:06;;;;;;;;;;;13.80;93.70;;;;;;5064182;28;20460;-64
2021/09/30 09:08:32;;;;;;;;;;;13.80;93.30;;;;;;5062660;28;19982;-63
2021/09/30 09:10:58;;;;;;;;;;;13.90;93.30;;;;;;5064277;28;20785;-64
2021/09/30 09:13:24;;;;;;;;;;;14.00;93.10;;;;;;5065620;28;19952;-61
2021/09/30 09:15:54;;;;;;;;;;;14.10;92.80;;;;;;5061073;28;20309;-62
2021/09/30 09:18:21;;;;;;;;;;;14.20;92.70;;;;;;5064959;28;19908;-62
2021/09/30 09:21:07;;;;;;;;;;;14.30;92.20;;;;;;5063769;28;20494;-64
2021/09/30 09:23:38;;;;;;;;;;;14.30;91.90;;;;;;5063931;28;19920;-64
2021/09/30 09:26:04;;;;;;;;;;;14.40;91.30;;;;;;5064948;28;22409;-63
2021/09/30 09:28:30;;;;;;;;;;;14.30;91.60;;;;;;5055963;28;19917;-61
2021/09/30 09:30:55;;;;;;;;;;;14.40;91.60;;;;;;5058535;28;20321;-64
2021/09/30 09:33:28;;;;;;;;;;;14.40;91.10;;;;;;5062528;28;19912;-64
2021/09/30 09:35:55;;;;;;;;;;;14.40;91.00;;;;;;5064998;28;20081;-63
2021/09/30 09:38:22;;;;;;;;;;;14.40;91.10;;;;;;5061364;28;19916;-64
2021/09/30 09:40:51;;;;;;;;;;;14.50;90.90;;;;;;5064079;28;20406;-61
2021/09/30 09:43:27;;;;;;;;;;;14.50;90.70;;;;;;5065730;28;20000;-64
2021/09/30 09:45:52;;;;;;;;;;;14.50;90.90;;;;;;5059688;28;19920;-64
2021/09/30 09:48:18;;;;;;;;;;;14.60;90.40;;;;;;5065831;28;19908;-60
2021/09/30 09:50:43;;;;;;;;;;;14.60;90.60;;;;;;5062309;28;19923;-61
2021/09/30 09:53:09;;;;;;;;;;;14.70;90.60;;;;;;5064628;28;19916;-63
2021/09/30 09:55:35;;;;;;;;;;;14.80;90.60;;;;;;5062767;28;19913;-61
2021/09/30 09:58:03;;;;;;;;;;;14.90;90.90;;;;;;5065453;28;19913;-64
2021/09/30 10:00:29;;;;;;;;;;;14.90;90.00;;;;;;5061516;28;19935;-61
2021/09/30 10:02:56;;;;;;;;;;;14.90;90.00;;;;;;5042965;28;19924;-62
2021/09/30 10:05:21;;;;;;;;;;;14.80;89.80;;;;;;5060946;28;20361;-64
2021/09/30 10:07:47;;;;;;;;;;;14.90;89.80;;;;;;5063743;28;19913;-63
2021/09/30 10:10:13;;;;;;;;;;;14.90;89.40;;;;;;5062672;28;19922;-63
2021/09/30 10:12:39;;;;;;;;;;;15.00;90.10;;;;;;5061067;28;19967;-61
2021/09/30 10:15:05;;;;;;;;;;;15.20;90.00;;;;;;5064137;28;19943;-63
2021/09/30 10:17:31;;;;;;;;;;;15.30;87.40;;;;;;5063471;28;19963;-62
2021/09/30 10:19:57;;;;;;;;;;;15.20;87.80;;;;;;5045105;28;19952;-63
2021/09/30 10:22:23;;;;;;;;;;;15.20;88.10;;;;;;5064453;28;20382;-62
2021/09/30 10:24:49;;;;;;;;;;;15.20;87.70;;;;;;5062869;28;19928;-62
2021/09/30 10:27:15;;;;;;;;;;;15.20;88.70;;;;;;5062138;28;19940;-64
2021/09/30 10:29:45;;;;;;;;;;;15.20;87.60;;;;;;5063997;28;19917;-64
2021/09/30 10:32:13;;;;;;;;;;;15.20;88.10;;;;;;5063277;28;19916;-64
2021/09/30 10:34:42;;;;;;;;;;;15.20;87.90;;;;;;5063018;28;20535;-63
2021/09/30 10:37:25;;;;;;;;;;;15.30;87.50;;;;;;5055355;28;20344;-63
2021/09/30 10:40:06;;;;;;;;;;;15.30;87.60;;;;;;5063741;28;19958;-62
2021/09/30 10:42:56;;;;;;;;;;;15.40;86.60;;;;;;5062315;28;19924;-62
2021/09/30 10:45:22;;;;;;;;;;;15.50;85.80;;;;;;5063453;28;19913;-62
2021/09/30 10:47:48;;;;;;;;;;;15.50;84.10;;;;;;5063665;28;19924;-61
2021/09/30 10:50:14;;;;;;;;;;;15.50;83.50;;;;;;5045831;28;19916;-61
2021/09/30 10:52:48;;;;;;;;;;;15.50;84.70;;;;;;5058620;28;19912;-62
2021/09/30 10:55:17;;;;;;;;;;;15.50;84.60;;;;;;5063791;28;19913;-60
2021/09/30 10:57:46;;;;;;;;;;;15.50;84.20;;;;;;5062341;28;19921;-63
2021/09/30 11:00:33;;;;;;;;;;;15.50;84.50;;;;;;5060909;28;19986;-64
2021/09/30 11:02:59;;;;;;;;;;;15.40;84.00;;;;;;5060517;28;19917;-64
2021/09/30 11:05:25;;;;;;;;;;;15.40;83.10;;;;;;5063811;28;19919;-63
2021/09/30 11:08:09;;;;;;;;;;;15.50;82.40;;;;;;5060289;28;19913;-61
2021/09/30 11:10:34;;;;;;;;;;;15.60;82.70;;;;;;5061685;28;20051;-62
2021/09/30 11:13:19;;;;;;;;;;;15.70;82.70;;;;;;5060920;28;20016;-61
2021/09/30 11:16:05;;;;;;;;;;;15.80;80.80;;;;;;5062060;28;20396;-63
2021/09/30 11:18:39;;;;;;;;;;;16.00;80.60;;;;;;5067771;28;20529;-64
2021/09/30 11:21:23;;;;;;;;;;;16.00;80.30;;;;;;5066516;28;22074;-61
2021/09/30 11:23:50;;;;;;;;;;;16.00;79.60;;;;;;5068656;28;20215;-62
2021/09/30 11:26:15;;;;;;;;;;;16.00;78.60;;;;;;5062094;28;19920;-63
2021/09/30 11:28:41;;;;;;;;;;;16.00;78.60;;;;;;5065340;28;19974;-62
2021/09/30 11:31:28;;;;;;;;;;;16.10;79.20;;;;;;5064768;28;20013;-60
2021/09/30 11:33:55;;;;;;;;;;;16.10;78.00;;;;;;5066934;28;20269;-63
2021/09/30 11:36:28;;;;;;;;;;;16.10;78.00;;;;;;5066592;28;19920;-64
2021/09/30 11:38:56;;;;;;;;;;;16.20;77.80;;;;;;5066015;28;20276;-62
2021/09/30 11:41:26;;;;;;;;;;;16.30;76.70;;;;;;5064690;28;20337;-63
2021/09/30 11:43:51;;;;;;;;;;;16.40;76.10;;;;;;5067815;28;19913;-61
2021/09/30 11:46:24;;;;;;;;;;;16.50;75.60;;;;;;5068407;28;20538;-63
2021/09/30 11:48:56;;;;;;;;;;;16.60;75.70;;;;;;5049706;28;19913;-63
2021/09/30 11:51:48;;;;;;;;;;;16.70;75.60;;;;;;5066759;28;19969;-63
2021/09/30 11:54:17;;;;;;;;;;;16.80;73.90;;;;;;5042680;28;19948;-63
2021/09/30 11:56:53;;;;;;;;;;;16.80;73.80;;;;;;5045421;28;20574;-63
2021/09/30 11:59:20;;;;;;;;;;;16.80;73.10;;;;;;5067206;28;19912;-63
2021/09/30 12:01:46;;;;;;;;;;;16.90;73.10;;;;;;5064589;28;19931;-61
2021/09/30 12:04:13;;;;;;;;;;;16.90;72.00;;;;;;5066708;28;19917;-62
2021/09/30 12:06:38;;;;;;;;;;;16.90;72.40;;;;;;5065508;28;19909;-64
2021/09/30 12:09:04;;;;;;;;;;;17.00;72.50;;;;;;5065448;28;20281;-61
2021/09/30 12:11:31;;;;;;;;;;;17.00;72.80;;;;;;5064154;28;19924;-63
2021/09/30 12:13:58;;;;;;;;;;;17.00;72.90;;;;;;5067838;28;19912;-63
2021/09/30 12:16:23;;;;;;;;;;;17.10;72.40;;;;;;5061836;28;19919;-64
2021/09/30 12:18:57;;;;;;;;;;;17.10;72.60;;;;;;5064919;28;20316;-61
2021/09/30 12:21:32;;;;;;;;;;;17.20;71.20;;;;;;5064861;28;19916;-62
2021/09/30 12:23:58;;;;;;;;;;;17.10;70.30;;;;;;5065683;28;19921;-63
2021/09/30 12:26:23;;;;;;;;;;;17.10;69.90;;;;;;5065211;28;19919;-61
2021/09/30 12:28:51;;;;;;;;;;;17.00;69.80;;;;;;5083750;22;20906;-58
2021/09/30 12:31:16;;;;;;;;;;;16.90;70.80;;;;;;5085438;28;19958;-57
2021/09/30 12:33:42;;;;;;;;;;;16.80;70.60;;;;;;5080803;28;20390;-58
2021/09/30 12:36:07;;;;;;;;;;;16.80;70.60;;;;;;5082423;28;19916;-58
2021/09/30 12:38:33;;;;;;;;;;;16.80;70.40;;;;;;5084305;28;19959;-58
2021/09/30 12:41:05;;;;;;;;;;;16.80;70.80;;;;;;5081976;28;19967;-58
2021/09/30 12:43:31;;;;;;;;;;;16.80;71.00;;;;;;5087021;28;19916;-59
2021/09/30 12:45:57;;;;;;;;;;;16.90;70.60;;;;;;5085381;28;19962;-58
2021/09/30 12:48:23;;;;;;;;;;;17.00;70.30;;;;;;5079845;28;19951;-62
2021/09/30 12:50:50;;;;;;;;;;;16.90;69.30;;;;;;5080393;28;19916;-60
2021/09/30 12:53:20;;;;;;;;;;;16.90;71.00;;;;;;5086521;28;19953;-58
2021/09/30 12:55:47;;;;;;;;;;;17.00;70.10;;;;;;5083137;28;19999;-59
2021/09/30 12:58:29;;;;;;;;;;;17.20;69.30;;;;;;5084965;28;20390;-59
2021/09/30 13:00:56;;;;;;;;;;;17.20;68.00;;;;;;5078085;28;20364;-59
2021/09/30 13:03:22;;;;;;;;;;;17.30;69.10;;;;;;5065269;28;20283;-59
2021/09/30 13:05:49;;;;;;;;;;;17.40;68.30;;;;;;5079708;28;19916;-59
2021/09/30 13:08:35;;;;;;;;;;;17.40;66.50;;;;;;5084879;28;19912;-59
2021/09/30 13:11:19;;;;;;;;;;;17.40;66.10;;;;;;5075229;28;20003;-59
2021/09/30 13:13:45;;;;;;;;;;;17.40;67.00;;;;;;5077706;28;19912;-59
2021/09/30 13:16:23;;;;;;;;;;;17.30;66.70;;;;;;5083991;28;19998;-59
2021/09/30 13:18:49;;;;;;;;;;;17.40;65.80;;;;;;5083995;28;19916;-59
2021/09/30 13:21:14;;;;;;;;;;;17.30;65.60;;;;;;5081066;28;19912;-59
2021/09/30 13:23:39;;;;;;;;;;;17.20;66.10;;;;;;5077617;28;20325;-59
2021/09/30 13:26:05;;;;;;;;;;;17.20;67.20;;;;;;5084588;28;20212;-58
2021/09/30 13:28:30;;;;;;;;;;;17.20;66.80;;;;;;5083850;28;19981;-59
2021/09/30 13:30:56;;;;;;;;;;;17.20;67.40;;;;;;5078673;28;19920;-60
2021/09/30 13:33:21;;;;;;;;;;;17.00;67.60;;;;;;5080941;28;19919;-60
2021/09/30 13:35:47;;;;;;;;;;;16.90;67.40;;;;;;5085459;28;19998;-59
2021/09/30 13:38:12;;;;;;;;;;;16.80;67.60;;;;;;5081003;28;19961;-59
2021/09/30 13:40:38;;;;;;;;;;;16.70;67.60;;;;;;5083880;28;20372;-59
2021/09/30 13:43:03;;;;;;;;;;;16.60;68.50;;;;;;5083915;28;20352;-59
2021/09/30 13:45:28;;;;;;;;;;;16.60;69.10;;;;;;5081266;28;19994;-59
2021/09/30 13:47:54;;;;;;;;;;;16.70;68.30;;;;;;5082968;28;19935;-60
2021/09/30 13:50:21;;;;;;;;;;;16.80;68.20;;;;;;5081736;28;19927;-60
2021/09/30 13:52:47;;;;;;;;;;;16.90;68.60;;;;;;5079220;28;19931;-59
2021/09/30 13:55:14;;;;;;;;;;;17.00;67.10;;;;;;5076197;28;20055;-60
2021/09/30 13:57:39;;;;;;;;;;;17.00;66.70;;;;;;5085022;28;20387;-59
2021/09/30 14:00:06;;;;;;;;;;;17.00;67.60;;;;;;5082326;28;19912;-59
2021/09/30 14:02:31;;;;;;;;;;;16.90;67.90;;;;;;5080489;28;19922;-59
2021/09/30 14:04:57;;;;;;;;;;;17.10;68.10;;;;;;5080915;28;20182;-60
2021/09/30 14:07:22;;;;;;;;;;;17.20;66.90;;;;;;5080727;28;19985;-59
2021/09/30 14:09:48;;;;;;;;;;;17.30;67.40;;;;;;5080071;28;19920;-59
2021/09/30 14:12:13;;;;;;;;;;;17.40;67.10;;;;;;5080234;28;19974;-59
2021/09/30 14:14:39;;;;;;;;;;;17.30;67.00;;;;;;5082637;28;19953;-60
2021/09/30 14:17:04;;;;;;;;;;;17.40;66.70;;;;;;5079122;28;19920;-60
2021/09/30 14:19:30;;;;;;;;;;;17.30;67.20;;;;;;5084811;28;19912;-60
2021/09/30 14:21:56;;;;;;;;;;;17.30;67.50;;;;;;5083074;28;19934;-59
2021/09/30 14:24:22;;;;;;;;;;;17.30;67.10;;;;;;5077177;28;20050;-60
2021/09/30 14:26:47;;;;;;;;;;;17.20;67.60;;;;;;5071791;28;20007;-59
2021/09/30 14:29:13;;;;;;;;;;;17.20;67.60;;;;;;5082632;28;20569;-59
2021/09/30 14:31:38;;;;;;;;;;;17.20;67.20;;;;;;5082968;28;19912;-60
2021/09/30 14:34:04;;;;;;;;;;;17.10;68.30;;;;;;5083693;28;20031;-59
2021/09/30 14:36:29;;;;;;;;;;;17.00;67.20;;;;;;5080691;28;19912;-60
2021/09/30 14:38:56;;;;;;;;;;;17.00;66.90;;;;;;5077618;28;19930;-60
2021/09/30 14:41:22;;;;;;;;;;;17.00;66.60;;;;;;5078657;28;19916;-60
2021/09/30 14:43:47;;;;;;;;;;;16.90;66.50;;;;;;5084481;28;20255;-60
2021/09/30 14:46:13;;;;;;;;;;;16.90;66.70;;;;;;5084165;28;19912;-58
2021/09/30 14:48:39;;;;;;;;;;;16.90;67.10;;;;;;5082235;28;19913;-59
2021/09/30 14:51:06;;;;;;;;;;;16.90;67.10;;;;;;5080142;28;20402;-60
2021/09/30 14:53:35;;;;;;;;;;;16.80;67.30;;;;;;5075882;28;19916;-60
2021/09/30 14:56:01;;;;;;;;;;;16.80;67.60;;;;;;5085031;28;20264;-60
2021/09/30 14:58:26;;;;;;;;;;;16.70;67.80;;;;;;5083481;28;19936;-58
2021/09/30 15:00:52;;;;;;;;;;;16.60;68.30;;;;;;5082347;28;19912;-63
2021/09/30 15:03:17;;;;;;;;;;;16.60;67.50;;;;;;5084067;28;19920;-59
2021/09/30 15:05:43;;;;;;;;;;;16.60;68.50;;;;;;5082250;28;20075;-59
2021/09/30 15:08:08;;;;;;;;;;;16.50;68.50;;;;;;5087597;28;19991;-59
2021/09/30 15:10:34;;;;;;;;;;;16.50;68.10;;;;;;5076541;28;19955;-59
2021/09/30 15:12:59;;;;;;;;;;;16.50;68.20;;;;;;5084348;28;19923;-58
2021/09/30 15:15:26;;;;;;;;;;;16.40;68.30;;;;;;5085385;28;20012;-59
2021/09/30 15:18:03;;;;;;;;;;;16.30;69.10;;;;;;5085949;28;20380;-58
2021/09/30 15:23:02;;;;;;;;;;;16.20;68.10;;;;;;5080314;28;19912;-59
2021/09/30 15:25:28;;;;;;;;;;;16.20;67.70;;;;;;5082414;28;20387;-58
2021/09/30 15:27:54;;;;;;;;;;;16.20;67.50;;;;;;5082997;28;19919;-59
2021/09/30 15:30:20;;;;;;;;;;;16.20;67.60;;;;;;5082595;28;20334;-59
2021/09/30 15:32:45;;;;;;;;;;;16.10;67.30;;;;;;5084152;28;20319;-58
2021/09/30 15:35:11;;;;;;;;;;;16.20;67.30;;;;;;5086436;28;19916;-58
2021/09/30 15:37:36;;;;;;;;;;;16.10;67.30;;;;;;5085263;28;19916;-59
2021/09/30 15:40:03;;;;;;;;;;;16.10;66.70;;;;;;5086761;28;20291;-58
2021/09/30 15:42:28;;;;;;;;;;;16.00;67.50;;;;;;5083206;28;19922;-58
2021/09/30 15:44:56;;;;;;;;;;;16.00;67.40;;;;;;5084603;28;19983;-58
2021/09/30 15:47:22;;;;;;;;;;;16.00;67.50;;;;;;5088397;28;19958;-59
2021/09/30 15:49:48;;;;;;;;;;;16.00;67.90;;;;;;5072884;28;19923;-57
2021/09/30 15:52:13;;;;;;;;;;;15.90;67.80;;;;;;5082145;28;19912;-58
2021/09/30 15:54:40;;;;;;;;;;;15.90;67.80;;;;;;5085687;28;19976;-59
2021/09/30 15:57:05;;;;;;;;;;;15.80;68.20;;;;;;5087581;28;19915;-59
2021/09/30 15:59:31;;;;;;;;;;;15.70;67.50;;;;;;5074783;28;19912;-59
2021/09/30 16:01:56;;;;;;;;;;;15.70;68.40;;;;;;5074820;28;19916;-58
2021/09/30 16:04:23;;;;;;;;;;;15.70;68.50;;;;;;5077140;28;19963;-58
2021/09/30 16:06:48;;;;;;;;;;;15.70;68.50;;;;;;5077581;28;19917;-59
2021/09/30 16:09:14;;;;;;;;;;;15.70;68.70;;;;;;5087230;28;19919;-58
2021/09/30 16:11:39;;;;;;;;;;;15.60;68.50;;;;;;5077426;28;20253;-59
2021/09/30 16:14:05;;;;;;;;;;;15.50;68.50;;;;;;5081915;28;19916;-62
2021/09/30 16:16:30;;;;;;;;;;;15.40;69.20;;;;;;5082621;28;19942;-59
2021/09/30 16:18:56;;;;;;;;;;;15.40;69.20;;;;;;5081038;28;21806;-57
2021/09/30 16:21:21;;;;;;;;;;;15.30;69.40;;;;;;5083155;28;19920;-58
2021/09/30 16:23:47;;;;;;;;;;;15.30;69.70;;;;;;5087008;28;19908;-58
2021/09/30 16:26:12;;;;;;;;;;;15.20;69.70;;;;;;5083931;28;20464;-58
2021/09/30 16:28:38;;;;;;;;;;;15.10;70.00;;;;;;5087436;28;20391;-59
2021/09/30 16:31:03;;;;;;;;;;;15.00;70.10;;;;;;5075022;28;20330;-59
2021/09/30 16:33:29;;;;;;;;;;;15.00;70.30;;;;;;5087055;28;19972;-60
2021/09/30 16:35:55;;;;;;;;;;;14.90;70.60;;;;;;5082040;28;19923;-58
2021/09/30 16:38:21;;;;;;;;;;;14.80;70.60;;;;;;5087984;28;20352;-59
2021/09/30 16:40:49;;;;;;;;;;;14.80;71.20;;;;;;5078779;28;20054;-58
2021/09/30 16:43:15;;;;;;;;;;;14.70;71.40;;;;;;5076681;28;19922;-57
2021/09/30 16:45:41;;;;;;;;;;;14.70;72.20;;;;;;5083917;28;19958;-59
2021/09/30 16:48:06;;;;;;;;;;;14.60;71.40;;;;;;5082099;28;19916;-59
2021/09/30 16:50:31;;;;;;;;;;;14.50;72.00;;;;;;5079009;28;20001;-59
2021/09/30 16:52:57;;;;;;;;;;;14.40;72.20;;;;;;5079669;28;19912;-60
2021/09/30 16:55:23;;;;;;;;;;;14.40;72.40;;;;;;5078987;28;20466;-57
2021/09/30 16:57:48;;;;;;;;;;;14.40;72.70;;;;;;5079884;28;19916;-58
2021/09/30 17:00:15;;;;;;;;;;;14.30;72.80;;;;;;5076726;28;20068;-57
2021/09/30 17:02:42;;;;;;;;;;;14.30;73.20;;;;;;5071872;28;20352;-58